createdAt,value
2017-03-08T00:00:34.694Z,10.08
2017-03-08T00:01:15.243Z,10.11
2017-03-08T00:01:55.640Z,10.07
2017-03-08T00:02:36.249Z,9.99
2017-03-08T00:03:16.689Z,10.04
2017-03-08T00:03:57.315Z,10.05
2017-03-08T00:04:37.926Z,10.09
2017-03-08T00:05:18.486Z,10.05
2017-03-08T00:05:59.025Z,10.08
2017-03-08T00:06:39.436Z,10.2
2017-03-08T00:07:19.999Z,10.17
2017-03-08T00:08:00.471Z,10.14
2017-03-08T00:08:40.905Z,10.2
2017-03-08T00:09:21.483Z,10.11
2017-03-08T00:10:02.051Z,10.05
2017-03-08T00:10:42.499Z,9.96
2017-03-08T00:11:22.926Z,10.05
2017-03-08T00:12:03.419Z,10.08
2017-03-08T00:12:43.933Z,10.15
2017-03-08T00:13:24.405Z,10.09
2017-03-08T00:14:04.916Z,10.09
2017-03-08T00:14:45.411Z,9.99
2017-03-08T00:15:25.917Z,10.07
2017-03-08T00:16:06.427Z,10.05
2017-03-08T00:16:46.898Z,10.08
2017-03-08T00:17:27.375Z,10.02
2017-03-08T00:18:07.880Z,9.96
2017-03-08T00:18:48.417Z,9.97
2017-03-08T00:19:28.916Z,10.09
2017-03-08T00:20:09.388Z,10.07
2017-03-08T00:20:49.990Z,10.08
2017-03-08T00:21:30.488Z,10.12
2017-03-08T00:22:10.948Z,10.08
2017-03-08T00:22:51.472Z,10.01
2017-03-08T00:23:31.995Z,9.99
2017-03-08T00:24:12.493Z,10.02
2017-03-08T00:24:52.975Z,9.94
2017-03-08T00:25:33.385Z,9.97
2017-03-08T00:26:13.934Z,9.96
2017-03-08T00:26:54.403Z,9.94
2017-03-08T00:27:35.010Z,9.79
2017-03-08T00:28:15.445Z,9.83
2017-03-08T00:28:55.957Z,9.79
2017-03-08T00:29:36.379Z,9.87
2017-03-08T00:30:16.889Z,9.84
2017-03-08T00:30:57.387Z,9.83
2017-03-08T00:31:37.894Z,9.72
2017-03-08T00:32:18.467Z,9.71
2017-03-08T00:32:58.926Z,9.75
2017-03-08T00:33:39.408Z,9.69
2017-03-08T00:34:19.903Z,9.79
2017-03-08T00:35:00.386Z,9.71
2017-03-08T00:35:40.815Z,9.66
2017-03-08T00:36:21.366Z,9.71
2017-03-08T00:37:01.823Z,9.83
2017-03-08T00:37:42.333Z,9.74
2017-03-08T00:38:22.952Z,9.72
2017-03-08T00:39:03.453Z,9.65
2017-03-08T00:39:43.985Z,9.64
2017-03-08T00:40:24.610Z,9.69
2017-03-08T00:41:05.018Z,9.72
2017-03-08T00:41:45.576Z,9.76
2017-03-08T00:42:26.114Z,9.68
2017-03-08T00:43:06.580Z,9.65
2017-03-08T00:43:47.085Z,9.65
2017-03-08T00:44:27.604Z,9.53
2017-03-08T00:45:08.139Z,9.5
2017-03-08T00:45:48.632Z,9.65
2017-03-08T00:46:29.136Z,9.57
2017-03-08T00:47:09.732Z,9.46
2017-03-08T00:47:50.188Z,9.54
2017-03-08T00:48:30.704Z,9.4
2017-03-08T00:49:11.225Z,9.39
2017-03-08T00:49:51.762Z,9.38
2017-03-08T00:50:32.282Z,9.54
2017-03-08T00:51:12.768Z,9.33
2017-03-08T00:51:53.201Z,9.28
2017-03-08T00:52:33.747Z,9.31
2017-03-08T00:53:14.303Z,9.29
2017-03-08T00:53:54.823Z,9.24
2017-03-08T00:54:35.351Z,9.33
2017-03-08T00:55:15.810Z,9.29
2017-03-08T00:55:56.373Z,9.32
2017-03-08T00:56:36.868Z,9.28
2017-03-08T00:57:17.308Z,9.2
2017-03-08T00:57:57.760Z,9.08
2017-03-08T00:58:38.293Z,9.31
2017-03-08T00:59:18.806Z,9.21
2017-03-08T00:59:59.313Z,9.13
2017-03-08T01:00:39.807Z,9.15
2017-03-08T01:01:20.453Z,9.08
2017-03-08T01:02:00.972Z,9.1
2017-03-08T01:02:41.384Z,9.15
2017-03-08T01:03:21.920Z,9.04
2017-03-08T01:04:02.490Z,9.04
2017-03-08T01:04:43.083Z,9.08
2017-03-08T01:05:23.509Z,9.05
2017-03-08T01:06:04.074Z,8.96
2017-03-08T01:06:44.528Z,8.95
2017-03-08T01:07:24.978Z,8.92
2017-03-08T01:08:05.469Z,8.84
2017-03-08T01:08:45.951Z,8.79
2017-03-08T01:09:26.509Z,8.83
2017-03-08T01:10:06.975Z,8.8
2017-03-08T01:10:47.491Z,8.94
2017-03-08T01:11:27.938Z,8.87
2017-03-08T01:12:08.481Z,8.76
2017-03-08T01:12:48.910Z,8.8
2017-03-08T01:13:29.451Z,8.89
2017-03-08T01:14:09.949Z,8.87
2017-03-08T01:14:50.461Z,8.83
2017-03-08T01:15:31.054Z,8.79
2017-03-08T01:16:11.584Z,8.81
2017-03-08T01:16:52.042Z,8.83
2017-03-08T01:26:26.560Z,8.63
2017-03-08T01:27:07.450Z,8.71
2017-03-08T01:27:48.007Z,8.84
2017-03-08T01:28:28.442Z,8.84
2017-03-08T01:29:08.958Z,8.76
2017-03-08T01:29:49.513Z,8.79
2017-03-08T01:30:29.994Z,8.76
2017-03-08T01:31:10.767Z,8.68
2017-03-08T01:31:51.342Z,8.65
2017-03-08T01:32:31.957Z,8.77
2017-03-08T01:33:12.381Z,8.63
2017-03-08T01:33:52.967Z,8.76
2017-03-08T01:34:33.421Z,8.74
2017-03-08T01:35:13.917Z,8.7
2017-03-08T01:35:54.530Z,8.68
2017-03-08T01:36:34.945Z,8.77
2017-03-08T01:37:15.522Z,8.73
2017-03-08T01:37:56.100Z,8.73
2017-03-08T01:38:36.561Z,8.77
2017-03-08T01:39:17.273Z,8.87
2017-03-08T01:39:57.798Z,8.87
2017-03-08T01:40:38.359Z,8.81
2017-03-08T01:41:18.858Z,8.83
2017-03-08T01:41:59.280Z,8.87
2017-03-08T01:42:39.850Z,8.81
2017-03-08T01:43:20.382Z,8.83
2017-03-08T01:44:00.884Z,8.81
2017-03-08T01:44:41.423Z,8.8
2017-03-08T01:45:21.994Z,8.86
2017-03-08T01:46:02.427Z,8.94
2017-03-08T01:46:42.945Z,8.95
2017-03-08T01:47:23.610Z,8.94
2017-03-08T01:48:04.100Z,8.92
2017-03-08T01:48:44.586Z,8.99
2017-03-08T01:49:25.144Z,8.91
2017-03-08T01:50:05.581Z,8.76
2017-03-08T01:50:46.118Z,8.83
2017-03-08T01:51:26.551Z,8.8
2017-03-08T01:52:07.065Z,8.77
2017-03-08T01:52:47.618Z,8.68
2017-03-08T01:53:28.162Z,8.76
2017-03-08T01:54:08.633Z,8.77
2017-03-08T01:54:49.115Z,8.83
2017-03-08T01:55:29.653Z,8.73
2017-03-08T01:56:10.204Z,8.77
2017-03-08T01:56:50.709Z,8.83
2017-03-08T01:57:31.174Z,8.87
2017-03-08T01:58:11.697Z,8.76
2017-03-08T01:58:52.218Z,8.66
2017-03-08T01:59:32.711Z,8.7
2017-03-08T02:00:13.258Z,8.68
2017-03-08T02:00:53.736Z,8.7
2017-03-08T02:01:34.193Z,8.7
2017-03-08T02:02:14.671Z,8.65
2017-03-08T02:02:55.264Z,8.73
2017-03-08T02:03:35.651Z,8.76
2017-03-08T02:04:16.169Z,8.79
2017-03-08T02:04:56.729Z,8.71
2017-03-08T02:05:37.251Z,8.79
2017-03-08T02:06:17.760Z,8.8
2017-03-08T02:06:58.180Z,8.76
2017-03-08T02:07:38.745Z,8.84
2017-03-08T02:08:19.207Z,8.89
2017-03-08T02:08:59.766Z,8.83
2017-03-08T02:09:40.478Z,8.83
2017-03-08T02:10:20.802Z,8.81
2017-03-08T02:11:01.472Z,8.8
2017-03-08T02:11:41.785Z,8.7
2017-03-08T02:12:22.346Z,8.68
2017-03-08T02:13:02.833Z,8.71
2017-03-08T02:13:43.451Z,8.83
2017-03-08T02:14:24.077Z,8.79
2017-03-08T02:15:04.481Z,8.63
2017-03-08T02:15:45.003Z,8.7
2017-03-08T02:16:25.622Z,8.71
2017-03-08T02:17:06.134Z,8.7
2017-03-08T02:17:46.686Z,8.66
2017-03-08T02:18:27.272Z,8.63
2017-03-08T02:19:07.716Z,8.68
2017-03-08T02:19:48.251Z,8.71
2017-03-08T02:20:28.677Z,8.66
2017-03-08T02:21:09.409Z,8.84
2017-03-08T02:21:50.023Z,8.83
2017-03-08T02:22:30.585Z,8.84
2017-03-08T02:23:11.105Z,8.73
2017-03-08T02:23:51.551Z,8.76
2017-03-08T02:24:31.989Z,8.81
2017-03-08T02:25:12.562Z,8.87
2017-03-08T02:25:53.013Z,8.74
2017-03-08T02:26:33.646Z,8.79
2017-03-08T02:27:14.147Z,8.87
2017-03-08T02:27:54.670Z,8.96
2017-03-08T02:28:35.159Z,8.89
2017-03-08T02:29:15.701Z,8.95
2017-03-08T02:29:56.421Z,9.05
2017-03-08T02:30:37.013Z,8.96
2017-03-08T02:31:18.091Z,8.98
2017-03-08T02:31:58.693Z,8.91
2017-03-08T02:32:39.278Z,8.95
2017-03-08T02:33:19.692Z,8.95
2017-03-08T02:34:00.183Z,8.86
2017-03-08T02:34:40.903Z,8.84
2017-03-08T02:35:21.265Z,8.84
2017-03-08T02:36:01.756Z,8.95
2017-03-08T02:36:42.264Z,8.95
2017-03-08T02:37:22.769Z,8.89
2017-03-08T02:38:03.316Z,8.86
2017-03-08T02:38:43.796Z,8.83
2017-03-08T02:39:24.387Z,8.84
2017-03-08T02:40:04.899Z,8.86
2017-03-08T02:40:45.358Z,8.83
2017-03-08T02:41:25.843Z,8.87
2017-03-08T02:42:06.350Z,8.95
2017-03-08T02:42:46.825Z,9.02
2017-03-08T02:43:27.359Z,9.02
2017-03-08T02:44:07.853Z,9.1
2017-03-08T02:44:48.297Z,9.02
2017-03-08T02:45:28.798Z,8.96
2017-03-08T02:46:09.241Z,8.84
2017-03-08T02:46:49.803Z,8.98
2017-03-08T02:47:30.390Z,8.79
2017-03-08T02:48:10.875Z,8.95
2017-03-08T02:48:51.513Z,8.95
2017-03-08T02:49:31.978Z,8.96
2017-03-08T02:50:12.519Z,8.95
2017-03-08T02:50:53.060Z,8.91
2017-03-08T02:51:33.552Z,8.95
2017-03-08T02:52:14.022Z,8.83
2017-03-08T02:52:54.613Z,8.94
2017-03-08T02:53:35.033Z,8.81
2017-03-08T02:54:15.578Z,8.76
2017-03-08T02:54:56.093Z,8.76
2017-03-08T02:56:44.506Z,8.77
2017-03-08T02:57:30.175Z,8.83
2017-03-08T02:58:11.284Z,8.83
2017-03-08T02:58:52.690Z,8.87
2017-03-08T02:59:32.933Z,8.84
2017-03-08T03:00:13.438Z,8.83
2017-03-08T03:00:53.979Z,8.91
2017-03-08T03:01:34.438Z,8.84
2017-03-08T03:02:15.098Z,8.76
2017-03-08T03:02:55.530Z,8.58
2017-03-08T03:03:36.123Z,8.45
2017-03-08T03:04:16.731Z,8.5
2017-03-08T03:04:57.098Z,8.41
2017-03-08T03:05:37.538Z,8.47
2017-03-08T03:06:18.080Z,8.47
2017-03-08T03:06:58.562Z,8.41
2017-03-08T03:07:39.003Z,8.37
2017-03-08T03:08:19.554Z,8.44
2017-03-08T03:10:35.580Z,8.52
2017-03-08T03:12:37.802Z,8.52
2017-03-08T03:13:25.905Z,8.61
2017-03-08T03:14:13.827Z,8.61
2017-03-08T03:14:54.566Z,8.5
2017-03-08T03:15:35.172Z,8.43
2017-03-08T03:16:15.578Z,8.47
2017-03-08T03:16:56.229Z,8.44
2017-03-08T03:17:36.560Z,8.43
2017-03-08T03:18:17.053Z,8.22
2017-03-08T03:18:57.675Z,8.29
2017-03-08T03:19:38.124Z,8.36
2017-03-08T03:20:18.658Z,8.33
2017-03-08T03:20:59.072Z,8.37
2017-03-08T03:21:39.616Z,8.41
2017-03-08T03:22:20.133Z,8.29
2017-03-08T03:23:00.623Z,8.41
2017-03-08T03:23:41.157Z,8.4
2017-03-08T03:24:21.624Z,8.38
2017-03-08T03:25:02.191Z,8.44
2017-03-08T03:25:42.649Z,8.45
2017-03-08T03:26:23.202Z,8.5
2017-03-08T03:27:03.717Z,8.52
2017-03-08T03:27:44.248Z,8.44
2017-03-08T03:28:24.730Z,8.41
2017-03-08T03:29:05.176Z,8.44
2017-03-08T03:29:45.749Z,8.43
2017-03-08T03:30:26.272Z,8.38
2017-03-08T03:31:06.739Z,8.41
2017-03-08T03:31:47.235Z,8.44
2017-03-08T03:32:27.745Z,8.36
2017-03-08T03:33:08.214Z,8.41
2017-03-08T03:33:48.864Z,8.34
2017-03-08T03:34:29.331Z,8.4
2017-03-08T03:35:09.838Z,8.28
2017-03-08T03:35:50.341Z,8.29
2017-03-08T03:36:30.767Z,8.38
2017-03-08T03:37:11.256Z,8.41
2017-03-08T03:37:51.708Z,8.33
2017-03-08T03:38:32.258Z,8.3
2017-03-08T03:39:12.752Z,8.28
2017-03-08T03:39:53.245Z,8.33
2017-03-08T03:40:33.829Z,8.29
2017-03-08T03:41:14.402Z,8.33
2017-03-08T03:41:55.293Z,8.33
2017-03-08T03:53:37.419Z,8.26
2017-03-08T03:54:25.347Z,8.26
2017-03-08T03:55:12.894Z,8.37
2017-03-08T03:55:52.702Z,8.29
2017-03-08T03:56:33.200Z,8.28
2017-03-08T03:57:13.716Z,8.25
2017-03-08T03:57:54.248Z,8.3
2017-03-08T03:58:34.736Z,8.29
2017-03-08T03:59:15.328Z,8.41
2017-03-08T03:59:55.881Z,8.37
2017-03-08T04:00:36.494Z,8.4
2017-03-08T04:01:17.131Z,8.43
2017-03-08T04:01:58.158Z,8.44
2017-03-08T04:02:37.998Z,8.44
2017-03-08T04:03:18.449Z,8.44
2017-03-08T04:03:58.973Z,8.52
2017-03-08T04:04:39.466Z,8.55
2017-03-08T04:05:19.943Z,8.53
2017-03-08T04:06:00.680Z,8.45
2017-03-08T04:06:41.156Z,8.5
2017-03-08T04:07:21.659Z,8.48
2017-03-08T04:08:02.204Z,8.59
2017-03-08T04:08:42.862Z,8.53
2017-03-08T04:09:23.278Z,8.48
2017-03-08T04:10:03.798Z,8.59
2017-03-08T04:10:44.266Z,8.59
2017-03-08T04:11:24.764Z,8.63
2017-03-08T04:12:05.213Z,8.61
2017-03-08T04:12:45.766Z,8.62
2017-03-08T04:13:26.203Z,8.48
2017-03-08T04:14:06.714Z,8.53
2017-03-08T04:14:47.235Z,8.65
2017-03-08T04:15:27.685Z,8.59
2017-03-08T04:16:08.238Z,8.62
2017-03-08T04:16:48.732Z,8.65
2017-03-08T04:17:29.176Z,8.62
2017-03-08T04:18:09.661Z,8.62
2017-03-08T04:18:50.144Z,8.55
2017-03-08T04:19:30.702Z,8.59
2017-03-08T04:20:11.224Z,8.62
2017-03-08T04:20:51.780Z,8.61
2017-03-08T04:21:32.231Z,8.58
2017-03-08T04:22:12.743Z,8.44
2017-03-08T04:22:53.216Z,8.45
2017-03-08T04:23:33.704Z,8.44
2017-03-08T04:24:14.179Z,8.53
2017-03-08T04:24:54.749Z,8.43
2017-03-08T04:25:35.186Z,8.56
2017-03-08T04:26:15.724Z,8.47
2017-03-08T04:26:56.111Z,8.5
2017-03-08T04:27:36.647Z,8.53
2017-03-08T04:28:17.118Z,8.41
2017-03-08T04:28:57.624Z,8.43
2017-03-08T04:29:38.076Z,8.47
2017-03-08T04:30:18.557Z,8.43
2017-03-08T04:30:59.095Z,8.36
2017-03-08T04:31:39.564Z,8.29
2017-03-08T04:32:20.082Z,8.37
2017-03-08T04:33:00.542Z,8.41
2017-03-08T04:33:40.997Z,8.38
2017-03-08T04:34:21.559Z,8.36
2017-03-08T04:35:02.032Z,8.33
2017-03-08T04:35:42.575Z,8.34
2017-03-08T04:36:23.038Z,8.33
2017-03-08T04:37:03.547Z,8.29
2017-03-08T04:37:44.044Z,8.37
2017-03-08T04:38:24.551Z,8.41
2017-03-08T04:39:05.023Z,8.28
2017-03-08T04:39:45.503Z,8.37
2017-03-08T04:40:25.977Z,8.29
2017-03-08T04:41:06.427Z,8.29
2017-03-08T04:41:46.981Z,8.3
2017-03-08T04:42:27.439Z,8.26
2017-03-08T04:43:07.972Z,8.26
2017-03-08T04:43:48.396Z,8.33
2017-03-08T04:44:28.915Z,8.25
2017-03-08T04:45:09.393Z,8.1
2017-03-08T04:45:49.905Z,8.22
2017-03-08T04:46:30.400Z,8.33
2017-03-08T04:47:10.900Z,8.2
2017-03-08T04:47:51.383Z,8.15
2017-03-08T04:48:31.903Z,8.19
2017-03-08T04:49:12.469Z,8.16
2017-03-08T04:49:52.943Z,8.23
2017-03-08T04:50:33.602Z,8.2
2017-03-08T04:51:14.124Z,8.16
2017-03-08T04:51:54.629Z,8.19
2017-03-08T04:52:35.086Z,8.15
2017-03-08T04:53:15.642Z,8.26
2017-03-08T04:53:56.130Z,8.28
2017-03-08T04:54:36.613Z,8.25
2017-03-08T04:55:17.044Z,8.16
2017-03-08T04:55:57.494Z,8.26
2017-03-08T04:56:38.028Z,8.25
2017-03-08T04:57:18.518Z,8.18
2017-03-08T04:57:58.980Z,8.25
2017-03-08T04:58:39.447Z,8.12
2017-03-08T04:59:19.978Z,8.07
2017-03-08T05:00:00.480Z,8.08
2017-03-08T05:00:40.978Z,8.19
2017-03-08T05:01:21.522Z,8.07
2017-03-08T05:02:02.060Z,8.18
2017-03-08T05:02:42.521Z,8.18
2017-03-08T05:03:22.983Z,8.12
2017-03-08T05:04:03.481Z,8.07
2017-03-08T05:04:43.946Z,8.22
2017-03-08T05:05:24.423Z,8.11
2017-03-08T05:06:04.922Z,8.07
2017-03-08T05:06:45.488Z,8.1
2017-03-08T05:07:25.932Z,8.08
2017-03-08T05:08:06.477Z,8.1
2017-03-08T05:08:46.954Z,8.11
2017-03-08T05:09:27.462Z,8.05
2017-03-08T05:10:07.972Z,8.04
2017-03-08T05:10:48.508Z,8.04
2017-03-08T05:11:29.017Z,8.07
2017-03-08T05:12:09.494Z,8
2017-03-08T05:12:49.979Z,8.08
2017-03-08T05:13:30.429Z,8.08
2017-03-08T05:14:10.955Z,8.02
2017-03-08T05:14:51.447Z,8.01
2017-03-08T05:15:31.921Z,7.97
2017-03-08T05:16:12.436Z,8.08
2017-03-08T05:16:52.879Z,8.05
2017-03-08T05:17:33.540Z,8.01
2017-03-08T05:18:14.092Z,8.05
2017-03-08T05:18:54.534Z,8.12
2017-03-08T05:19:35.062Z,8.07
2017-03-08T05:20:15.553Z,8.07
2017-03-08T05:20:56.006Z,8.07
2017-03-08T05:21:36.573Z,8.04
2017-03-08T05:22:17.185Z,8.02
2017-03-08T05:22:57.618Z,8.05
2017-03-08T05:23:38.137Z,8.05
2017-03-08T05:24:18.856Z,7.97
2017-03-08T05:24:59.393Z,8
2017-03-08T05:25:39.835Z,8.05
2017-03-08T05:26:20.343Z,8.02
2017-03-08T05:27:00.962Z,8.12
2017-03-08T05:27:41.391Z,8.07
2017-03-08T05:28:21.844Z,8.01
2017-03-08T05:29:02.382Z,8.08
2017-03-08T05:29:42.838Z,8.07
2017-03-08T05:30:23.361Z,8.1
2017-03-08T05:31:03.874Z,8.11
2017-03-08T05:31:44.339Z,8.02
2017-03-08T05:32:24.850Z,8.05
2017-03-08T05:33:05.233Z,8.07
2017-03-08T05:33:45.775Z,8.11
2017-03-08T05:34:26.249Z,8.11
2017-03-08T05:35:07.480Z,8.08
2017-03-08T05:35:48.102Z,8.04
2017-03-08T05:36:28.536Z,8.12
2017-03-08T05:37:09.040Z,8.08
2017-03-08T05:37:49.641Z,8.04
2017-03-08T05:38:30.109Z,8.07
2017-03-08T05:39:10.562Z,8.04
2017-03-08T05:39:51.100Z,8.16
2017-03-08T05:40:31.734Z,8.11
2017-03-08T05:41:12.177Z,8.11
2017-03-08T05:41:52.847Z,8.12
2017-03-08T05:42:33.239Z,8.11
2017-03-08T05:43:13.751Z,8.15
2017-03-08T05:43:54.280Z,8.08
2017-03-08T05:44:35.150Z,8.12
2017-03-08T05:45:15.848Z,8.07
2017-03-08T05:45:56.406Z,8.12
2017-03-08T05:46:36.904Z,8.11
2017-03-08T05:47:17.458Z,8.16
2017-03-08T05:47:58.022Z,8.22
2017-03-08T05:48:38.508Z,8.11
2017-03-08T05:49:18.971Z,8.1
2017-03-08T05:49:59.461Z,8.18
2017-03-08T05:50:40.036Z,8.12
2017-03-08T05:51:20.522Z,8.08
2017-03-08T05:52:01.009Z,8.15
2017-03-08T05:52:41.514Z,8.1
2017-03-08T05:53:22.016Z,8.12
2017-03-08T05:54:02.548Z,8.15
2017-03-08T05:54:43.263Z,8.2
2017-03-08T05:55:23.851Z,8.19
2017-03-08T05:56:04.292Z,8.15
2017-03-08T05:56:44.813Z,8.16
2017-03-08T05:57:25.375Z,8.18
2017-03-08T05:58:06.071Z,8.18
2017-03-08T05:58:46.560Z,8.12
2017-03-08T05:59:27.078Z,8.19
2017-03-08T06:00:07.582Z,8.25
2017-03-08T06:00:48.053Z,8.16
2017-03-08T06:01:28.699Z,8.16
2017-03-08T06:02:09.257Z,8.2
2017-03-08T06:02:50.849Z,8.19
2017-03-08T06:03:33.111Z,8.16
2017-03-08T06:04:12.676Z,8.19
2017-03-08T06:11:18.027Z,8.34
2017-03-08T06:14:48.931Z,8.29
2017-03-08T06:15:31.265Z,8.38
2017-03-08T06:16:11.934Z,8.34
2017-03-08T06:16:54.282Z,8.37
2017-03-08T06:17:34.845Z,8.36
2017-03-08T06:18:15.254Z,8.38
2017-03-08T06:18:55.840Z,8.3
2017-03-08T06:19:36.484Z,8.28
2017-03-08T06:20:17.099Z,8.33
2017-03-08T06:20:57.702Z,8.36
2017-03-08T06:21:38.134Z,8.34
2017-03-08T06:22:18.691Z,8.37
2017-03-08T06:22:59.197Z,8.38
2017-03-08T06:23:42.183Z,8.37
2017-03-08T06:25:33.199Z,8.41
2017-03-08T06:27:24.960Z,8.41
2017-03-08T06:28:07.528Z,8.4
2017-03-08T06:28:48.157Z,8.34
2017-03-08T06:29:28.675Z,8.4
2017-03-08T06:30:09.372Z,8.43
2017-03-08T06:30:49.929Z,8.41
2017-03-08T06:31:30.667Z,8.47
2017-03-08T06:32:11.144Z,8.55
2017-03-08T06:32:51.721Z,8.41
2017-03-08T06:33:32.196Z,8.45
2017-03-08T06:34:12.958Z,8.56
2017-03-08T06:34:53.399Z,8.68
2017-03-08T06:36:42.949Z,8.87
2017-03-08T06:37:23.920Z,8.89
2017-03-08T06:38:04.420Z,9.02
2017-03-08T06:38:44.881Z,9.26
2017-03-08T06:39:25.424Z,9.38
2017-03-08T06:40:05.919Z,9.5
2017-03-08T06:40:46.745Z,9.6
2017-03-08T06:41:27.428Z,9.58
2017-03-08T06:42:07.802Z,9.61
2017-03-08T06:42:48.250Z,9.76
2017-03-08T06:43:29.267Z,9.79
2017-03-08T06:44:09.893Z,9.83
2017-03-08T06:44:50.859Z,9.99
2017-03-08T06:45:31.593Z,9.81
2017-03-08T06:46:12.195Z,9.76
2017-03-08T06:46:52.600Z,9.86
2017-03-08T06:47:33.124Z,9.74
2017-03-08T06:48:13.653Z,9.83
2017-03-08T06:48:54.178Z,9.83
2017-03-08T06:49:34.744Z,9.83
2017-03-08T06:50:15.288Z,9.81
2017-03-08T06:50:56.056Z,9.75
2017-03-08T06:51:36.533Z,9.72
2017-03-08T06:52:17.005Z,9.79
2017-03-08T06:52:57.495Z,9.91
2017-03-08T06:53:37.991Z,9.87
2017-03-08T06:54:18.468Z,9.84
2017-03-08T06:54:58.994Z,9.94
2017-03-08T06:55:39.455Z,9.84
2017-03-08T06:56:19.949Z,9.84
2017-03-08T06:57:00.456Z,9.87
2017-03-08T06:57:40.959Z,9.83
2017-03-08T06:58:21.471Z,9.91
2017-03-08T06:59:02.064Z,10.02
2017-03-08T06:59:42.442Z,10.04
2017-03-08T07:00:22.915Z,10.09
2017-03-08T07:01:04.326Z,9.96
2017-03-08T07:01:44.797Z,10.07
2017-03-08T07:02:25.298Z,10.08
2017-03-08T07:03:05.821Z,10.08
2017-03-08T07:03:46.379Z,10.07
2017-03-08T07:04:26.869Z,10.17
2017-03-08T07:05:07.410Z,10.27
2017-03-08T07:05:48.215Z,10.18
2017-03-08T07:06:28.776Z,10.17
2017-03-08T07:07:09.224Z,10.14
2017-03-08T07:07:49.725Z,10.2
2017-03-08T07:08:30.180Z,10.26
2017-03-08T07:09:10.675Z,10.22
2017-03-08T07:09:51.120Z,10.05
2017-03-08T07:10:31.645Z,10.14
2017-03-08T07:11:12.138Z,10.3
2017-03-08T07:11:52.660Z,10.25
2017-03-08T07:12:33.127Z,10.18
2017-03-08T07:13:13.661Z,10.26
2017-03-08T07:13:54.276Z,10.45
2017-03-08T07:14:34.735Z,10.4
2017-03-08T07:15:15.256Z,10.53
2017-03-08T07:15:55.898Z,10.6
2017-03-08T07:16:36.392Z,10.73
2017-03-08T07:17:16.886Z,10.79
2017-03-08T07:17:57.430Z,10.94
2017-03-08T07:18:38.117Z,11.07
2017-03-08T07:19:18.802Z,11.04
2017-03-08T07:19:59.193Z,11.03
2017-03-08T07:20:39.707Z,11.21
2017-03-08T07:21:20.277Z,11.24
2017-03-08T07:22:00.691Z,11.32
2017-03-08T07:22:41.196Z,11.44
2017-03-08T07:23:21.773Z,11.54
2017-03-08T07:24:02.200Z,11.47
2017-03-08T07:24:42.856Z,11.55
2017-03-08T07:25:23.504Z,11.62
2017-03-08T07:26:03.930Z,11.72
2017-03-08T07:26:44.458Z,11.72
2017-03-08T07:27:25.004Z,11.55
2017-03-08T07:28:05.464Z,11.72
2017-03-08T07:28:46.003Z,11.64
2017-03-08T07:29:26.551Z,11.72
2017-03-08T07:30:07.283Z,11.69
2017-03-08T07:30:47.741Z,11.72
2017-03-08T07:31:28.200Z,11.79
2017-03-08T07:32:08.717Z,11.9
2017-03-08T07:32:49.200Z,11.9
2017-03-08T07:33:29.734Z,11.98
2017-03-08T07:34:10.328Z,12.01
2017-03-08T07:34:50.794Z,11.99
2017-03-08T07:35:31.326Z,12.02
2017-03-08T07:36:11.800Z,12.17
2017-03-08T07:36:52.282Z,12.14
2017-03-08T07:37:32.882Z,12.19
2017-03-08T07:38:13.437Z,12.24
2017-03-08T07:38:53.946Z,12.31
2017-03-08T07:39:34.550Z,12.41
2017-03-08T07:40:15.168Z,12.39
2017-03-08T07:40:55.599Z,12.38
2017-03-08T07:41:36.096Z,12.38
2017-03-08T07:42:16.594Z,12.41
2017-03-08T07:42:57.056Z,12.5
2017-03-08T07:43:37.635Z,12.49
2017-03-08T07:44:18.080Z,12.47
2017-03-08T07:44:58.642Z,12.49
2017-03-08T07:45:39.085Z,12.59
2017-03-08T07:46:19.607Z,12.57
2017-03-08T07:47:00.104Z,12.65
2017-03-08T07:47:40.661Z,12.72
2017-03-08T07:48:21.279Z,12.86
2017-03-08T07:49:01.718Z,12.85
2017-03-08T07:49:42.261Z,13
2017-03-08T07:50:22.736Z,12.96
2017-03-08T07:51:03.258Z,12.97
2017-03-08T07:51:43.770Z,13.01
2017-03-08T07:52:24.279Z,13.03
2017-03-08T07:53:04.786Z,12.96
2017-03-08T07:53:45.253Z,12.96
2017-03-08T07:54:25.723Z,12.96
2017-03-08T07:55:06.202Z,13.03
2017-03-08T07:55:46.721Z,12.95
2017-03-08T07:56:27.175Z,13
2017-03-08T07:57:07.658Z,13.03
2017-03-08T07:57:48.189Z,13.12
2017-03-08T07:58:28.827Z,13.17
2017-03-08T07:59:09.367Z,13.12
2017-03-08T07:59:49.875Z,13.14
2017-03-08T08:00:30.309Z,13.15
2017-03-08T08:01:10.866Z,13.08
2017-03-08T08:01:51.404Z,13.2
2017-03-08T08:02:31.867Z,13.14
2017-03-08T08:03:12.336Z,13.17
2017-03-08T08:03:52.835Z,13.33
2017-03-08T08:04:33.324Z,13.28
2017-03-08T08:05:13.882Z,13.32
2017-03-08T08:05:54.301Z,13.39
2017-03-08T08:06:34.859Z,13.42
2017-03-08T08:07:15.397Z,13.38
2017-03-08T08:07:55.888Z,13.39
2017-03-08T08:08:37.049Z,13.44
2017-03-08T08:09:17.079Z,13.39
2017-03-08T08:09:57.591Z,13.49
2017-03-08T08:10:38.093Z,13.54
2017-03-08T08:11:18.632Z,13.52
2017-03-08T08:11:59.084Z,13.57
2017-03-08T08:12:39.536Z,13.59
2017-03-08T08:13:20.069Z,13.6
2017-03-08T08:14:00.568Z,13.63
2017-03-08T08:14:41.059Z,13.67
2017-03-08T08:15:21.482Z,13.64
2017-03-08T08:16:02.094Z,13.64
2017-03-08T08:16:42.626Z,13.63
2017-03-08T08:17:23.150Z,13.62
2017-03-08T08:18:03.691Z,13.57
2017-03-08T08:18:44.354Z,13.59
2017-03-08T08:19:24.845Z,13.59
2017-03-08T08:20:05.447Z,13.59
2017-03-08T08:20:45.968Z,13.7
2017-03-08T08:21:26.426Z,13.78
2017-03-08T08:22:06.987Z,13.79
2017-03-08T08:22:47.584Z,13.78
2017-03-08T08:23:28.079Z,13.89
2017-03-08T08:24:08.575Z,13.85
2017-03-08T08:24:49.054Z,14
2017-03-08T08:25:29.739Z,13.85
2017-03-08T08:26:10.199Z,13.99
2017-03-08T08:26:50.712Z,14.02
2017-03-08T08:27:31.269Z,14.07
2017-03-08T08:28:11.752Z,14
2017-03-08T08:28:52.941Z,14.07
2017-03-08T08:29:33.418Z,14.06
2017-03-08T08:30:13.893Z,14.14
2017-03-08T08:30:55.671Z,14.09
2017-03-08T08:31:39.874Z,14.06
2017-03-08T08:32:21.032Z,14.12
2017-03-08T08:33:01.572Z,14.21
2017-03-08T08:33:42.109Z,14.27
2017-03-08T08:34:22.533Z,14.24
2017-03-08T08:35:03.002Z,14.25
2017-03-08T08:35:47.613Z,14.04
2017-03-08T08:36:31.003Z,14.1
2017-03-08T08:37:11.559Z,14.29
2017-03-08T08:37:52.084Z,14.33
2017-03-08T08:38:32.596Z,14.33
2017-03-08T08:39:16.720Z,14.25
2017-03-08T08:41:30.124Z,14.32
2017-03-08T08:42:10.804Z,14.39
2017-03-08T08:42:51.373Z,14.42
2017-03-08T08:43:31.896Z,14.37
2017-03-08T08:44:13.829Z,14.42
2017-03-08T08:44:54.800Z,14.39
2017-03-08T08:45:35.405Z,14.42
2017-03-08T08:46:15.812Z,14.52
2017-03-08T08:46:56.592Z,14.57
2017-03-08T08:47:39.472Z,14.4
2017-03-08T08:49:18.133Z,14.57
2017-03-08T08:49:59.278Z,14.57
2017-03-08T08:50:39.761Z,14.61
2017-03-08T08:51:20.240Z,14.58
2017-03-08T08:52:00.743Z,14.65
2017-03-08T08:52:41.279Z,14.58
2017-03-08T08:53:21.833Z,14.52
2017-03-08T08:54:03.683Z,14.47
2017-03-08T08:54:44.664Z,14.61
2017-03-08T08:55:25.179Z,14.62
2017-03-08T08:56:05.690Z,14.64
2017-03-08T08:56:46.149Z,14.61
2017-03-08T08:57:26.747Z,14.69
2017-03-08T08:58:08.801Z,14.78
2017-03-08T08:58:50.192Z,14.73
2017-03-08T08:59:30.706Z,14.68
2017-03-08T09:00:11.141Z,14.58
2017-03-08T09:00:54.273Z,14.65
2017-03-08T09:01:34.776Z,14.47
2017-03-08T09:02:15.321Z,14.45
2017-03-08T09:02:55.999Z,14.4
2017-03-08T09:03:38.436Z,14.32
2017-03-08T09:05:37.416Z,14.4
2017-03-08T09:06:17.312Z,14.43
2017-03-08T09:06:58.282Z,14.25
2017-03-08T09:07:39.018Z,14.28
2017-03-08T09:08:19.539Z,14.27
2017-03-08T09:09:00.273Z,14.17
2017-03-08T09:09:40.772Z,14.29
2017-03-08T09:10:21.487Z,14.28
2017-03-08T09:11:02.191Z,14.29
2017-03-08T09:11:43.189Z,14.33
2017-03-08T09:12:25.504Z,14.15
2017-03-08T09:13:05.996Z,13.54
2017-03-08T09:13:48.792Z,13.81
2017-03-08T09:14:29.512Z,13.82
2017-03-08T09:15:09.815Z,13.88
2017-03-08T09:15:55.720Z,14.12
2017-03-08T09:16:35.922Z,14.02
2017-03-08T09:17:16.426Z,13.82
2017-03-08T09:17:59.525Z,13.89
2017-03-08T09:18:39.224Z,13.89
2017-03-08T09:19:25.914Z,13.82
2017-03-08T09:20:06.397Z,13.87
2017-03-08T09:20:50.914Z,13.87
2017-03-08T09:21:30.248Z,13.82
2017-03-08T09:22:11.161Z,13.87
2017-03-08T09:22:51.901Z,13.84
2017-03-08T09:23:32.597Z,13.88
2017-03-08T09:24:14.832Z,13.79
2017-03-08T09:24:57.827Z,13.77
2017-03-08T09:25:38.375Z,13.88
2017-03-08T09:26:21.808Z,13.84
2017-03-08T09:27:02.861Z,13.82
2017-03-08T09:27:45.171Z,13.84
2017-03-08T09:28:26.368Z,13.79
2017-03-08T09:29:06.874Z,13.87
2017-03-08T09:29:47.419Z,13.99
2017-03-08T09:30:31.315Z,14.06
2017-03-08T09:31:13.374Z,13.97
2017-03-08T09:31:53.982Z,14.21
2017-03-08T09:32:36.410Z,14.06
2017-03-08T09:33:16.963Z,14
2017-03-08T09:34:01.032Z,14
2017-03-08T09:35:39.579Z,14.04
2017-03-08T09:36:21.975Z,14.03
2017-03-08T09:37:03.277Z,14.14
2017-03-08T09:37:43.729Z,14.03
2017-03-08T09:38:27.241Z,14.06
2017-03-08T09:39:07.924Z,14.03